Time;durP1;ratioP1;P1;durP2;ratioP2;P2;SDS_P1;SDS_P2;PMS_P1;PMS_P2;Temp;Humidity;BMP_temperature;BMP_pressure;BME280_temperature;BME280_humidity;BME280_pressure;Samples;Min_cycle;Max_cycle;Signal;HPM_P1;HPM_P2
2022/08/26 00:01:35;;;;;;;4.70;2.15;;;18.00;99.90;;;;;;5059881;28;20184;-85
2022/08/26 00:04:02;;;;;;;8.13;3.05;;;18.20;99.90;;;;;;5065220;28;20240;-86
2022/08/26 00:06:29;;;;;;;4.82;2.85;;;;;;;;;;5063321;28;20667;-87
2022/08/26 00:08:55;;;;;;;4.68;2.60;;;;;;;;;;5044928;28;20590;-87
2022/08/26 00:11:21;;;;;;;2.85;1.65;;;;;;;;;;5044939;28;20172;-86
2022/08/26 00:13:47;;;;;;;5.22;2.22;;;;;;;;;;5039259;28;20286;-87
2022/08/26 00:16:13;;;;;;;5.10;2.35;;;;;;;;;;5035499;28;20206;-87
2022/08/26 00:18:39;;;;;;;2.78;2.03;;;;;;;;;;5052981;28;20175;-87
2022/08/26 00:21:06;;;;;;;4.25;2.13;;;17.60;99.90;;;;;;5052772;28;20175;-87
2022/08/26 00:23:32;;;;;;;3.92;2.00;;;;;;;;;;5052966;28;20313;-87
2022/08/26 00:25:58;;;;;;;3.15;1.98;;;;;;;;;;5052861;28;20179;-87
2022/08/26 00:28:24;;;;;;;2.47;2.00;;;;;;;;;;5035466;28;20187;-87
2022/08/26 00:30:50;;;;;;;2.67;1.45;;;;;;;;;;5054906;28;20186;-87
2022/08/26 00:33:18;;;;;;;4.05;2.25;;;17.80;99.90;;;;;;5059364;28;20294;-86
2022/08/26 00:35:44;;;;;;;5.75;2.42;;;18.10;99.90;;;;;;5063639;28;20186;-87
2022/08/26 00:38:11;;;;;;;5.50;2.50;;;;;;;;;;5065413;28;20176;-87
2022/08/26 00:40:42;;;;;;;2.25;2.00;;;17.80;99.90;;;;;;5050039;28;20175;-86
2022/08/26 00:43:08;;;;;;;2.88;2.53;;;18.20;99.90;;;;;;5069247;28;20168;-87
2022/08/26 00:45:42;;;;;;;3.17;1.90;;;17.80;99.90;;;;;;5054551;28;20228;-86
2022/08/26 00:48:09;;;;;;;2.65;2.17;;;;;;;;;;5073199;28;20180;-86
2022/08/26 00:50:42;;;;;;;2.65;2.28;;;17.70;99.90;;;;;;5060985;28;20168;-86
2022/08/26 00:53:20;;;;;;;4.80;1.90;;;17.70;99.90;;;;;;5065956;28;20339;-87
2022/08/26 00:55:59;;;;;;;4.22;2.33;;;18.10;99.90;;;;;;5064903;28;20262;-86
2022/08/26 00:58:28;;;;;;;5.03;2.28;;;17.50;99.90;;;;;;5063927;28;20174;-86
2022/08/26 01:00:54;;;;;;;2.38;1.55;;;17.60;99.90;;;;;;5063739;28;20258;-87
2022/08/26 01:03:24;;;;;;;3.92;2.30;;;17.60;99.90;;;;;;5062746;28;20273;-87
2022/08/26 01:05:54;;;;;;;7.07;2.05;;;17.60;99.90;;;;;;5061383;28;20228;-87
2022/08/26 01:08:20;;;;;;;3.70;2.15;;;17.30;99.90;;;;;;5056316;28;20182;-87
2022/08/26 01:10:46;;;;;;;4.45;2.08;;;;;;;;;;5056277;28;20644;-86
2022/08/26 01:13:12;;;;;;;5.80;2.63;;;17.50;99.90;;;;;;5038412;28;20684;-87
2022/08/26 01:15:52;;;;;;;3.67;2.00;;;17.30;99.90;;;;;;5038404;28;20195;-86
2022/08/26 01:18:18;;;;;;;4.03;2.35;;;17.50;99.90;;;;;;5038646;28;20180;-87
2022/08/26 01:21:11;;;;;;;2.33;2.00;;;17.30;99.90;;;;;;5055842;28;20223;-87
2022/08/26 01:23:44;;;;;;;3.33;1.75;;;17.20;99.90;;;;;;5056013;28;20530;-86
2022/08/26 01:26:15;;;;;;;3.80;2.15;;;17.40;99.90;;;;;;5055725;28;20191;-86
2022/08/26 01:28:41;;;;;;;2.85;1.83;;;17.40;99.90;;;;;;5055885;28;20216;-86
2022/08/26 01:31:10;;;;;;;2.72;1.90;;;17.40;99.90;;;;;;5055853;28;20172;-87
2022/08/26 01:34:00;;;;;;;3.38;2.00;;;17.60;99.90;;;;;;5055556;28;20288;-87
2022/08/26 01:36:26;;;;;;;3.85;2.47;;;17.80;99.90;;;;;;5055987;28;20164;-87
2022/08/26 01:38:53;;;;;;;4.70;2.58;;;;;;;;;;5037554;28;20225;-88
2022/08/26 01:41:20;;;;;;;3.33;1.95;;;17.70;99.90;;;;;;5055659;28;20190;-88
2022/08/26 01:43:50;;;;;;;2.15;1.50;;;17.50;99.90;;;;;;5038383;28;20199;-87
2022/08/26 01:46:17;;;;;;;4.97;2.35;;;17.70;99.90;;;;;;5037598;28;20266;-88
2022/08/26 01:48:46;;;;;;;6.07;2.10;;;17.40;99.90;;;;;;5055590;28;20254;-87
2022/08/26 01:51:12;;;;;;;4.45;2.05;;;17.20;99.90;;;;;;5055344;28;20230;-87
2022/08/26 01:53:40;;;;;;;3.75;2.30;;;16.80;99.90;;;;;;5055531;28;20296;-87
2022/08/26 01:56:08;;;;;;;2.55;2.00;;;17.00;99.90;;;;;;5054601;28;20296;-87
2022/08/26 01:58:40;;;;;;;4.70;1.98;;;17.00;99.90;;;;;;5055789;28;20221;-87
2022/08/26 02:01:06;;;;;;;4.07;2.75;;;17.10;99.90;;;;;;5055390;28;20636;-87
2022/08/26 02:03:33;;;;;;;2.70;1.92;;;17.10;99.90;;;;;;5038055;28;20179;-87
2022/08/26 02:06:03;;;;;;;2.95;2.30;;;17.50;99.90;;;;;;5037603;28;20184;-87
2022/08/26 02:08:42;;;;;;;6.57;2.60;;;16.90;99.90;;;;;;5055420;28;20247;-87
2022/08/26 02:11:08;;;;;;;2.72;1.60;;;16.70;99.90;;;;;;5043306;28;20179;-87
2022/08/26 02:13:40;;;;;;;3.30;2.25;;;17.00;99.90;;;;;;5075160;28;20739;-87
2022/08/26 02:16:07;;;;;;;3.20;1.95;;;17.20;99.90;;;;;;5074780;28;20621;-86
2022/08/26 02:18:35;;;;;;;5.43;3.60;;;17.20;99.90;;;;;;5057596;28;20182;-87
2022/08/26 02:21:01;;;;;;;1.80;1.55;;;17.00;99.90;;;;;;5089088;28;20191;-86
2022/08/26 02:23:27;;;;;;;3.13;1.80;;;;;;;;;;5088520;28;20181;-87
2022/08/26 02:26:02;;;;;;;2.53;2.00;;;16.70;99.90;;;;;;5057141;28;20183;-87
2022/08/26 02:28:34;;;;;;;3.55;2.05;;;17.00;99.90;;;;;;5069641;28;20201;-87
2022/08/26 02:31:00;;;;;;;3.97;2.45;;;16.60;99.90;;;;;;5065291;28;20209;-87
2022/08/26 02:33:28;;;;;;;3.55;1.70;;;16.90;99.90;;;;;;5029620;28;20583;-87
2022/08/26 02:35:53;;;;;;;4.90;2.47;;;17.50;99.90;;;;;;5063270;28;20195;-88
2022/08/26 02:38:19;;;;;;;3.25;1.90;;;;;;;;;;5063347;28;20207;-87
2022/08/26 02:40:45;;;;;;;2.05;1.85;;;;;;;;;;5066216;28;20180;-87
2022/08/26 02:43:11;;;;;;;4.05;1.38;;;;;;;;;;5068915;28;20240;-87
2022/08/26 02:45:39;;;;;;;2.15;1.70;;;16.50;99.90;;;;;;5067230;28;20265;-87
2022/08/26 02:48:12;;;;;;;3.88;1.75;;;16.90;99.90;;;;;;5044758;28;20217;-87
2022/08/26 02:50:39;;;;;;;4.65;2.25;;;16.60;99.90;;;;;;5063497;28;20281;-88
2022/08/26 02:53:06;;;;;;;1.90;1.30;;;16.70;99.90;;;;;;5065077;28;20669;-87
2022/08/26 02:55:32;;;;;;;2.97;1.35;;;;;;;;;;5064409;28;20195;-87
2022/08/26 02:57:58;;;;;;;2.00;1.20;;;;;;;;;;5065610;28;20187;-87
2022/08/26 03:00:24;;;;;;;5.18;1.50;;;;;;;;;;5078810;28;20236;-86
2022/08/26 03:02:50;;;;;;;4.38;2.17;;;;;;;;;;5069768;28;20186;-87
2022/08/26 03:05:18;;;;;;;5.40;2.65;;;17.00;99.90;;;;;;5041634;28;20672;-87
2022/08/26 03:07:44;;;;;;;3.10;2.22;;;17.20;99.90;;;;;;5035504;28;20180;-87
2022/08/26 03:10:12;;;;;;;4.82;2.40;;;16.70;99.90;;;;;;5036249;28;20184;-87
2022/08/26 03:12:38;;;;;;;2.83;2.25;;;16.90;99.90;;;;;;5036151;28;20315;-87
2022/08/26 03:15:06;;;;;;;3.03;2.08;;;16.50;99.90;;;;;;5053857;28;20667;-88
2022/08/26 03:17:32;;;;;;;1.52;1.40;;;17.00;99.90;;;;;;5036436;28;20199;-87
2022/08/26 03:19:58;;;;;;;4.05;2.75;;;;;;;;;;5036297;28;20171;-87
2022/08/26 03:22:25;;;;;;;4.00;2.53;;;16.70;99.90;;;;;;5053290;28;20188;-86
2022/08/26 03:24:51;;;;;;;3.90;2.55;;;;;;;;;;5053678;28;20751;-89
2022/08/26 03:27:17;;;;;;;4.43;1.90;;;;;;;;;;5035660;28;20188;-87
2022/08/26 03:32:26;;;;;;;7.18;2.58;;;16.80;99.90;;;;;;5038345;28;20203;-88
2022/08/26 03:34:52;;;;;;;2.25;1.92;;;17.10;99.90;;;;;;5053638;28;20180;-89
2022/08/26 03:37:19;;;;;;;4.10;2.63;;;;;;;;;;5053541;28;20172;-88
2022/08/26 03:39:45;;;;;;;3.90;3.45;;;17.00;99.90;;;;;;5035678;28;20184;-88
2022/08/26 03:42:11;;;;;;;3.75;2.03;;;;;;;;;;5035938;28;20271;-87
2022/08/26 03:44:37;;;;;;;2.35;2.17;;;17.00;99.90;;;;;;5035511;28;20188;-88
2022/08/26 03:47:03;;;;;;;2.25;1.95;;;;;;;;;;5053833;28;20217;-88
2022/08/26 03:49:30;;;;;;;2.03;1.85;;;16.70;99.90;;;;;;5035494;28;20629;-88
2022/08/26 03:51:56;;;;;;;5.38;2.28;;;17.10;99.90;;;;;;5065187;28;20593;-87
2022/08/26 03:54:22;;;;;;;3.78;2.28;;;;;;;;;;5058334;28;20187;-88
2022/08/26 03:56:48;;;;;;;2.35;1.73;;;;;;;;;;5071015;28;20191;-88
2022/08/26 03:59:14;;;;;;;2.15;1.88;;;17.30;99.90;;;;;;5070591;28;20274;-87
2022/08/26 04:01:39;;;;;;;2.80;2.25;;;17.00;99.90;;;;;;5054043;28;20187;-87
2022/08/26 04:04:05;;;;;;;5.47;1.92;;;;;;;;;;5081103;28;20183;-88
2022/08/26 04:06:42;;;;;;;3.08;2.03;;;17.40;99.90;;;;;;5053433;28;20191;-87
2022/08/26 04:09:19;;;;;;;1.38;1.27;;;17.20;99.90;;;;;;5071453;28;20186;-87
2022/08/26 04:11:46;;;;;;;2.55;1.40;;;17.10;99.90;;;;;;5053757;28;20200;-88
2022/08/26 04:14:15;;;;;;;2.55;2.00;;;17.00;99.90;;;;;;5052737;28;20202;-87
2022/08/26 04:16:42;;;;;;;2.75;1.50;;;17.00;99.90;;;;;;5071673;28;20179;-86
2022/08/26 04:19:08;;;;;;;2.08;1.65;;;17.40;99.90;;;;;;5071990;28;20236;-86
2022/08/26 04:21:36;;;;;;;3.95;2.25;;;17.60;99.90;;;;;;5057973;28;20201;-86
2022/08/26 04:24:03;;;;;;;6.88;2.65;;;;;;;;;;5080804;28;20186;-87
2022/08/26 04:26:35;;;;;;;2.75;1.80;;;17.20;99.90;;;;;;5057214;28;20195;-88
2022/08/26 04:29:04;;;;;;;4.95;2.72;;;17.20;99.90;;;;;;5055826;28;20670;-86
2022/08/26 04:31:31;;;;;;;4.35;1.98;;;17.50;99.90;;;;;;5074608;28;20183;-86
2022/08/26 04:33:57;;;;;;;4.90;1.70;;;16.60;99.90;;;;;;5074121;28;20230;-87
2022/08/26 04:36:23;;;;;;;2.47;1.70;;;;;;;;;;5075017;28;20221;-87
2022/08/26 04:38:49;;;;;;;1.40;1.30;;;;;;;;;;5056609;28;20274;-87
2022/08/26 04:41:17;;;;;;;3.17;1.95;;;17.70;99.90;;;;;;5055911;28;20237;-87
2022/08/26 04:43:44;;;;;;;3.42;2.10;;;17.70;99.90;;;;;;5073417;28;20195;-86
2022/08/26 04:46:10;;;;;;;7.20;3.25;;;;;;;;;;5036896;28;20227;-86
2022/08/26 04:48:36;;;;;;;3.05;2.33;;;17.90;99.90;;;;;;5056209;28;21612;-87
2022/08/26 04:51:03;;;;;;;3.20;2.17;;;;;;;;;;5072417;28;20196;-86
2022/08/26 04:53:29;;;;;;;2.85;1.73;;;;;;;;;;5056539;28;20209;-87
2022/08/26 04:55:55;;;;;;;4.55;2.50;;;18.00;99.90;;;;;;5074665;28;20232;-87
2022/08/26 04:58:23;;;;;;;5.93;3.08;;;18.30;99.90;;;;;;5075651;28;20190;-87
2022/08/26 05:00:51;;;;;;;6.70;2.85;;;18.30;99.90;;;;;;5042853;28;20241;-87
2022/08/26 05:03:18;;;;;;;4.80;2.65;;;18.30;99.90;;;;;;5075931;28;20190;-88
2022/08/26 05:05:45;;;;;;;2.95;2.28;;;18.40;99.90;;;;;;5059137;28;20174;-87
2022/08/26 05:08:13;;;;;;;3.47;2.03;;;18.50;99.90;;;;;;5078744;28;20182;-86
2022/08/26 05:10:44;;;;;;;1.98;1.65;;;;;;;;;;5075802;28;20602;-88
2022/08/26 05:13:10;;;;;;;6.72;2.90;;;;;;;;;;5058747;28;20203;-87
2022/08/26 05:15:36;;;;;;;4.57;2.17;;;;;;;;;;5076239;28;20189;-86
2022/08/26 05:18:04;;;;;;;3.85;2.40;;;18.60;99.90;;;;;;5058376;28;20174;-86
2022/08/26 05:20:31;;;;;;;2.22;1.80;;;;;;;;;;5075904;28;20244;-85
2022/08/26 05:22:59;;;;;;;5.38;2.65;;;19.00;99.90;;;;;;5076554;28;20178;-86
2022/08/26 05:25:29;;;;;;;4.07;2.13;;;19.20;99.90;;;;;;5058872;28;20215;-87
2022/08/26 05:27:55;;;;;;;5.05;2.63;;;;;;;;;;5042830;28;20175;-87
2022/08/26 05:30:21;;;;;;;4.13;2.42;;;19.10;99.90;;;;;;5048218;28;20537;-87
2022/08/26 05:32:48;;;;;;;3.83;2.40;;;;;;;;;;5047450;28;20206;-86
2022/08/26 05:35:14;;;;;;;5.88;3.85;;;;;;;;;;5066243;28;20184;-85
2022/08/26 05:37:39;;;;;;;5.03;2.40;;;19.60;99.90;;;;;;5047521;28;20171;-86
2022/08/26 05:40:06;;;;;;;3.42;2.35;;;20.20;99.90;;;;;;5041585;28;20187;-86
2022/08/26 05:42:32;;;;;;;6.07;3.05;;;;;;;;;;5058290;28;20563;-87
2022/08/26 05:44:58;;;;;;;2.85;1.98;;;;;;;;;;5075697;28;20241;-85
2022/08/26 05:47:25;;;;;;;5.68;2.65;;;20.40;99.90;;;;;;5058747;28;20183;-86
2022/08/26 05:49:51;;;;;;;3.85;2.45;;;;;;;;;;5055832;28;20176;-86
2022/08/26 05:52:17;;;;;;;3.90;2.45;;;;;;;;;;5055727;28;20282;-86
2022/08/26 05:54:43;;;;;;;3.55;2.50;;;;;;;;;;5038155;28;20183;-86
2022/08/26 05:57:11;;;;;;;3.58;2.35;;;;;;;;;;5038457;28;20183;-86
2022/08/26 05:59:37;;;;;;;3.35;2.50;;;20.50;99.90;;;;;;5037436;28;20233;-87
2022/08/26 06:02:04;;;;;;;5.78;2.63;;;20.50;99.90;;;;;;5037156;28;20176;-86
2022/08/26 06:04:30;;;;;;;4.13;3.05;;;;;;;;;;5042215;28;20185;-86
2022/08/26 06:06:56;;;;;;;3.85;2.47;;;;;;;;;;5072486;28;20164;-86
2022/08/26 06:09:22;;;;;;;3.42;2.30;;;;;;;;;;5038653;28;20188;-84
2022/08/26 06:11:48;;;;;;;5.28;2.45;;;;;;;;;;5037811;28;20190;-84
2022/08/26 06:14:14;;;;;;;3.38;2.20;;;21.20;99.90;;;;;;5057135;28;20212;-84
2022/08/26 06:16:44;;;;;;;5.20;2.72;;;21.80;99.90;;;;;;5054578;28;20189;-83
2022/08/26 06:19:12;;;;;;;6.75;2.60;;;21.40;99.90;;;;;;5056729;28;20178;-85
2022/08/26 06:21:40;;;;;;;1.90;1.70;;;21.50;99.90;;;;;;5047585;28;20179;-84
2022/08/26 06:27:00;;;;;;;6.28;3.53;;;21.80;99.90;;;;;;5029513;28;20195;-84
2022/08/26 06:29:28;;;;;;;3.33;2.45;;;21.90;99.90;;;;;;5056252;28;20721;-84
2022/08/26 06:31:54;;;;;;;4.43;2.88;;;22.10;99.90;;;;;;5075737;28;20632;-84
2022/08/26 06:34:21;;;;;;;5.38;3.05;;;21.80;99.90;;;;;;5074389;28;20202;-83
2022/08/26 06:36:48;;;;;;;5.88;2.40;;;;;;;;;;5060040;28;20207;-83
2022/08/26 06:39:15;;;;;;;6.90;3.65;;;22.40;99.90;;;;;;5078756;28;20179;-83
2022/08/26 06:41:43;;;;;;;8.25;2.88;;;22.50;99.90;;;;;;5076433;28;20175;-83
2022/08/26 06:44:10;;;;;;;5.78;2.85;;;22.60;99.90;;;;;;5076432;28;20260;-83
2022/08/26 06:46:36;;;;;;;5.57;2.60;;;;;;;;;;5058207;28;20227;-84
2022/08/26 06:49:02;;;;;;;6.70;2.88;;;22.70;99.90;;;;;;5056945;28;20175;-83
2022/08/26 06:51:31;;;;;;;5.35;2.80;;;23.00;99.90;;;;;;5074100;28;20274;-83
2022/08/26 06:54:00;;;;;;;3.25;2.15;;;;;;;;;;5074242;28;20573;-82
2022/08/26 06:56:32;;;;;;;7.07;2.38;;;23.20;99.90;;;;;;5056747;28;20273;-85
2022/08/26 06:58:58;;;;;;;3.38;2.10;;;;;;;;;;5056412;28;20229;-83
2022/08/26 07:01:30;;;;;;;3.22;1.92;;;23.40;99.90;;;;;;5056262;28;20211;-83
2022/08/26 07:03:59;;;;;;;3.13;1.77;;;23.60;99.90;;;;;;5074487;28;20167;-84
2022/08/26 07:06:27;;;;;;;4.57;2.83;;;23.70;99.90;;;;;;5056122;28;20570;-83
2022/08/26 07:09:00;;;;;;;4.63;2.45;;;23.80;99.90;;;;;;5073705;28;20183;-84
2022/08/26 07:11:26;;;;;;;6.72;2.72;;;;;;;;;;5073700;28;20175;-84
2022/08/26 07:13:52;;;;;;;3.03;2.28;;;;;;;;;;5072279;28;20568;-84
2022/08/26 07:16:18;;;;;;;2.78;1.80;;;;;;;;;;5072074;28;20183;-84
2022/08/26 07:18:45;;;;;;;15.10;2.38;;;;;;;;;;5073504;28;20694;-84
2022/08/26 07:21:13;;;;;;;6.40;2.53;;;24.40;99.90;;;;;;5074371;28;20617;-85
2022/08/26 07:23:40;;;;;;;3.55;1.77;;;24.40;99.90;;;;;;5074307;28;20171;-83
2022/08/26 07:26:07;;;;;;;7.20;2.72;;;24.70;99.90;;;;;;5044184;28;20183;-87
2022/08/26 07:28:33;;;;;;;4.22;2.60;;;;;;;;;;5055917;28;20171;-84
2022/08/26 07:31:04;;;;;;;7.28;2.60;;;24.70;99.90;;;;;;5073459;28;20520;-84
2022/08/26 07:33:30;;;;;;;5.88;2.90;;;;;;;;;;5072767;28;20682;-87
2022/08/26 07:35:56;;;;;;;15.15;2.58;;;;;;;;;;5073546;28;20203;-85
2022/08/26 07:38:22;;;;;;;3.13;2.40;;;;;;;;;;5038913;28;20197;-84
2022/08/26 07:40:48;;;;;;;5.78;2.45;;;;;;;;;;5055497;28;20186;-84
2022/08/26 07:43:14;;;;;;;5.70;3.55;;;;;;;;;;5072769;28;20241;-85
2022/08/26 07:45:41;;;;;;;7.60;2.63;;;;;;;;;;5052465;28;20235;-86
2022/08/26 07:48:06;;;;;;;3.85;2.13;;;25.80;99.90;;;;;;5035805;28;20183;-83
2022/08/26 07:50:33;;;;;;;5.13;3.15;;;25.70;99.90;;;;;;5062830;28;20183;-89
2022/08/26 07:53:00;;;;;;;6.05;3.10;;;;;;;;;;5055400;28;20695;-84
2022/08/26 07:55:26;;;;;;;4.75;2.28;;;;;;;;;;5056900;28;20191;-84
2022/08/26 07:57:52;;;;;;;4.95;2.35;;;26.30;99.90;;;;;;5073210;28;20179;-84
2022/08/26 08:00:18;;;;;;;3.80;2.35;;;;;;;;;;5073325;28;20546;-84
2022/08/26 08:02:44;;;;;;;2.92;2.17;;;;;;;;;;5072820;28;20225;-84
2022/08/26 08:05:12;;;;;;;5.07;2.92;;;26.30;99.90;;;;;;5055969;28;20175;-84
2022/08/26 08:07:39;;;;;;;11.25;4.35;;;;;;;;;;5073922;28;20171;-83
2022/08/26 08:10:06;;;;;;;8.63;3.45;;;27.10;99.90;;;;;;5059150;28;20724;-83
2022/08/26 08:12:32;;;;;;;7.53;3.33;;;;;;;;;;5035527;28;20210;-82
2022/08/26 08:14:58;;;;;;;3.78;2.10;;;;;;;;;;5052784;28;20647;-83
2022/08/26 08:17:24;;;;;;;3.30;1.98;;;;;;;;;;5055158;28;20208;-83
2022/08/26 08:19:50;;;;;;;4.38;2.63;;;;;;;;;;5036437;28;20188;-83
2022/08/26 08:22:17;;;;;;;3.72;2.67;;;;;;;;;;5053159;28;20176;-83
2022/08/26 08:24:43;;;;;;;2.70;2.33;;;27.60;99.20;;;;;;5035296;28;20233;-84
2022/08/26 08:27:09;;;;;;;5.95;2.72;;;27.00;98.10;;;;;;5035217;28;20575;-83
2022/08/26 08:29:38;;;;;;;4.53;2.90;;;27.20;92.30;;;;;;5035480;28;20258;-83
2022/08/26 08:32:04;;;;;;;4.38;2.95;;;27.60;99.80;;;;;;5034946;28;20714;-83
2022/08/26 08:34:29;;;;;;;3.55;2.47;;;27.90;99.90;;;;;;5035286;28;20192;-83
2022/08/26 08:36:56;;;;;;;6.53;3.53;;;27.20;99.40;;;;;;5052870;28;20172;-83
2022/08/26 08:39:22;;;;;;;8.48;2.65;;;;;;;;;;5035301;28;20271;-83
2022/08/26 08:42:12;;;;;;;5.20;3.05;;;27.70;99.30;;;;;;5052758;28;20176;-84
2022/08/26 08:44:43;;;;;;;2.55;1.98;;;27.50;98.60;;;;;;5053586;28;20241;-87
2022/08/26 08:47:22;;;;;;;3.25;1.83;;;27.50;92.70;;;;;;5053526;28;20230;-83
2022/08/26 08:49:48;;;;;;;3.97;2.85;;;27.10;98.90;;;;;;5052963;28;20632;-83
2022/08/26 08:52:36;;;;;;;4.82;2.88;;;27.60;93.10;;;;;;5052870;28;20176;-83
2022/08/26 08:55:04;;;;;;;4.03;2.63;;;27.60;92.90;;;;;;5052648;28;20233;-83
2022/08/26 08:57:39;;;;;;;4.60;3.05;;;27.60;93.10;;;;;;5052797;28;20176;-82
2022/08/26 09:00:12;;;;;;;4.35;2.63;;;27.40;96.30;;;;;;5034855;28;20182;-83
2022/08/26 09:02:49;;;;;;;5.18;2.70;;;27.70;92.50;;;;;;5052559;28;20171;-83
2022/08/26 09:05:38;;;;;;;5.10;2.75;;;27.60;92.40;;;;;;5053232;28;20656;-83
2022/08/26 09:08:08;;;;;;;6.47;2.45;;;28.10;99.50;;;;;;5056232;28;20218;-83
2022/08/26 09:10:38;;;;;;;7.20;2.60;;;26.20;93.30;;;;;;5058535;28;20222;-84
2022/08/26 09:13:08;;;;;;;2.60;1.83;;;27.70;92.50;;;;;;5057865;28;20218;-83
2022/08/26 09:15:57;;;;;;;7.50;2.78;;;27.90;96.60;;;;;;5039241;28;20275;-83
2022/08/26 09:18:38;;;;;;;3.47;2.30;;;27.50;96.30;;;;;;5056387;28;20164;-83
2022/08/26 09:21:09;;;;;;;3.28;2.10;;;28.00;90.40;;;;;;5056631;28;20167;-83
2022/08/26 09:23:38;;;;;;;4.50;2.97;;;28.20;92.90;;;;;;5056289;28;20668;-82
2022/08/26 09:26:18;;;;;;;4.07;2.10;;;28.90;92.80;;;;;;5055947;28;20218;-83
2022/08/26 09:28:47;;;;;;;2.55;1.67;;;28.20;87.60;;;;;;5056472;28;20256;-85
2022/08/26 09:31:21;;;;;;;3.15;1.98;;;28.60;79.70;;;;;;5056645;28;20171;-83
2022/08/26 09:33:47;;;;;;;2.15;1.77;;;28.80;79.10;;;;;;5056390;28;20286;-84
2022/08/26 09:36:17;;;;;;;3.95;2.17;;;29.20;90.90;;;;;;5038460;28;20577;-83
2022/08/26 09:38:43;;;;;;;2.13;1.50;;;;;;;;;;5055883;28;20175;-84
2022/08/26 09:41:30;;;;;;;1.45;1.35;;;29.10;73.30;;;;;;5055642;28;20195;-83
2022/08/26 09:44:10;;;;;;;1.88;1.13;;;29.30;73.10;;;;;;5037900;28;20176;-85
2022/08/26 09:46:39;;;;;;;1.95;1.40;;;29.40;70.80;;;;;;5056076;28;20314;-83
2022/08/26 09:49:30;;;;;;;3.58;1.73;;;29.90;81.90;;;;;;5055702;28;20267;-84
2022/08/26 09:52:12;;;;;;;5.68;2.35;;;29.70;67.90;;;;;;5055549;28;20230;-84
2022/08/26 09:54:38;;;;;;;1.23;1.13;;;29.80;67.50;;;;;;5056659;28;20164;-84
2022/08/26 09:57:16;;;;;;;3.22;1.85;;;29.80;66.90;;;;;;5056843;28;20184;-83
2022/08/26 09:59:42;;;;;;;4.20;1.98;;;;;;;;;;5055690;28;20171;-84
2022/08/26 10:02:30;;;;;;;3.17;1.58;;;30.10;67.70;;;;;;5037444;28;20226;-84
2022/08/26 10:04:57;;;;;;;2.92;1.63;;;30.10;64.80;;;;;;5063909;28;20636;-85
2022/08/26 10:07:59;;;;;;;3.65;1.77;;;30.10;62.30;;;;;;5047435;28;20176;-84
2022/08/26 10:10:37;;;;;;;2.72;1.10;;;30.00;62.40;;;;;;4974222;28;20190;-84
2022/08/26 10:13:14;;;;;;;2.28;1.67;;;30.00;60.60;;;;;;5045318;28;20210;-84
2022/08/26 10:15:45;;;;;;;2.92;2.15;;;30.10;60.20;;;;;;5075224;28;20274;-84
2022/08/26 10:18:23;;;;;;;2.15;1.75;;;30.20;63.00;;;;;;5074355;28;20171;-85
2022/08/26 10:21:01;;;;;;;2.65;1.55;;;30.30;62.50;;;;;;5057026;28;20179;-85
2022/08/26 10:23:31;;;;;;;4.07;1.77;;;30.40;63.20;;;;;;5045314;28;20176;-85
2022/08/26 10:26:04;;;;;;;4.80;2.25;;;30.70;74.80;;;;;;5065297;28;20593;-85
2022/08/26 10:28:53;;;;;;;3.03;1.90;;;30.50;61.00;;;;;;5068366;28;20621;-85
2022/08/26 10:31:25;;;;;;;4.82;2.08;;;30.70;64.40;;;;;;5060489;28;20179;-85
2022/08/26 10:33:50;;;;;;;4.28;2.22;;;30.90;72.80;;;;;;5037011;28;20196;-85
2022/08/26 10:39:10;;;;;;;1.30;1.20;;;30.50;68.60;;;;;;5060344;28;20226;-85
2022/08/26 10:41:41;;;;;;;2.78;1.67;;;30.40;68.70;;;;;;5059459;28;20704;-84
2022/08/26 10:44:11;;;;;;;2.70;1.65;;;30.80;70.30;;;;;;5071138;28;20176;-84
2022/08/26 10:46:45;;;;;;;2.50;1.75;;;30.20;67.90;;;;;;5071622;28;20219;-84
2022/08/26 10:49:14;;;;;;;6.90;4.18;;;30.80;57.70;;;;;;5066152;28;20163;-85
2022/08/26 10:51:49;;;;;;;2.13;1.70;;;30.70;54.70;;;;;;5070279;28;20179;-86
2022/08/26 10:54:52;;;;;;;2.05;1.70;;;30.90;67.90;;;;;;5071347;28;20186;-86
2022/08/26 10:57:38;;;;;;;4.10;1.80;;;30.00;67.30;;;;;;5065238;28;20196;-85
2022/08/26 11:03:26;;;;;;;3.42;1.27;;;30.40;56.00;;;;;;5068935;28;20755;-85
2022/08/26 11:06:13;;;;;;;5.15;1.55;;;30.70;64.30;;;;;;5039561;28;20240;-86
2022/08/26 11:08:47;;;;;;;3.33;1.58;;;30.40;53.60;;;;;;5055113;28;20167;-86
2022/08/26 11:11:39;;;;;;;2.78;1.80;;;30.60;66.20;;;;;;5070837;28;20624;-84
2022/08/26 11:14:07;;;;;;;2.90;1.50;;;30.80;64.00;;;;;;5055414;28;20286;-84
2022/08/26 11:16:33;;;;;;;2.70;2.28;;;30.60;52.90;;;;;;5057590;28;20636;-84
2022/08/26 11:18:58;;;;;;;2.63;1.35;;;30.70;51.80;;;;;;5071423;28;20254;-84
2022/08/26 11:22:03;;;;;;;1.80;1.52;;;30.60;52.90;;;;;;5057727;28;20237;-84
2022/08/26 11:25:00;;;;;;;1.92;1.52;;;30.50;52.20;;;;;;5053796;28;20644;-88
2022/08/26 11:27:35;;;;;;;2.58;1.70;;;30.60;52.30;;;;;;5070468;28;20198;-86
2022/08/26 11:30:06;;;;;;;1.70;1.60;;;31.30;63.60;;;;;;5054529;28;20178;-85
2022/08/26 11:32:31;;;;;;;5.30;2.50;;;;;;;;;;5073417;28;20206;-86
2022/08/26 11:34:58;;;;;;;2.30;1.70;;;30.80;52.10;;;;;;5073681;28;20183;-88
2022/08/26 11:37:32;;;;;;;2.03;1.70;;;31.10;53.40;;;;;;5044370;28;20222;-85
2022/08/26 11:39:59;;;;;;;3.83;2.03;;;31.10;53.80;;;;;;5071690;28;20168;-88
2022/08/26 11:42:36;;;;;;;2.88;1.40;;;31.20;53.50;;;;;;5071297;28;20261;-86
2022/08/26 11:45:24;;;;;;;2.88;1.73;;;31.00;61.50;;;;;;5082146;28;20423;-84
2022/08/26 11:47:50;;;;;;;2.38;1.40;;;31.40;62.20;;;;;;5086800;28;20170;-85
2022/08/26 11:50:27;;;;;;;2.58;1.38;;;31.60;52.80;;;;;;5069574;28;20187;-87
2022/08/26 11:52:52;;;;;;;2.08;1.65;;;31.80;50.60;;;;;;5066098;28;20215;-85
2022/08/26 11:55:19;;;;;;;7.18;2.42;;;;;;;;;;5072018;28;20232;-85
2022/08/26 11:57:49;;;;;;;4.10;2.53;;;31.50;49.60;;;;;;5062409;28;20183;-85
2022/08/26 12:00:25;;;;;;;2.33;1.73;;;31.10;50.30;;;;;;5070421;28;20388;-83
2022/08/26 12:02:51;;;;;;;2.65;1.80;;;30.80;51.20;;;;;;5073145;28;20182;-86
2022/08/26 12:05:24;;;;;;;5.60;2.83;;;30.70;52.30;;;;;;5044759;28;20667;-86
2022/08/26 12:07:51;;;;;;;2.92;1.85;;;31.00;51.50;;;;;;5072470;28;20250;-85
2022/08/26 12:10:32;;;;;;;2.20;1.38;;;31.00;52.00;;;;;;5059861;28;20221;-85
2022/08/26 12:13:00;;;;;;;3.53;1.92;;;31.20;51.30;;;;;;5056923;28;20210;-86
2022/08/26 12:15:27;;;;;;;2.30;1.80;;;31.30;52.00;;;;;;5071929;28;20175;-85
2022/08/26 12:17:53;;;;;;;5.75;1.73;;;;;;;;;;5071897;28;20183;-84
2022/08/26 12:20:44;;;;;;;2.13;1.73;;;31.70;59.80;;;;;;5057057;28;20252;-85
2022/08/26 12:23:20;;;;;;;1.65;1.55;;;31.40;59.60;;;;;;5068188;28;20183;-84
2022/08/26 12:25:46;;;;;;;2.40;1.85;;;;;;;;;;5067622;28;20185;-84
2022/08/26 12:28:12;;;;;;;2.97;1.77;;;31.70;49.70;;;;;;5046429;28;20645;-85
2022/08/26 12:30:38;;;;;;;2.45;1.88;;;31.60;49.40;;;;;;5052833;28;20258;-86
2022/08/26 12:33:10;;;;;;;1.67;1.45;;;31.60;58.30;;;;;;5052034;28;20214;-87
2022/08/26 12:35:38;;;;;;;2.15;1.52;;;31.10;59.80;;;;;;5069233;28;20222;-87
2022/08/26 12:38:04;;;;;;;4.40;1.67;;;31.80;50.20;;;;;;5052611;28;20199;-86
2022/08/26 12:40:29;;;;;;;4.60;1.88;;;31.80;50.50;;;;;;5053969;28;20206;-88
2022/08/26 12:42:59;;;;;;;4.15;1.67;;;31.90;49.50;;;;;;5068765;28;20219;-87
2022/08/26 12:45:31;;;;;;;2.50;1.65;;;32.00;48.10;;;;;;5070094;28;20223;-85
2022/08/26 12:48:01;;;;;;;5.88;1.83;;;32.20;47.70;;;;;;5073653;28;20203;-85
2022/08/26 12:50:32;;;;;;;2.47;1.60;;;32.10;48.40;;;;;;5056947;28;20202;-87
2022/08/26 12:53:03;;;;;;;3.03;1.98;;;32.40;47.80;;;;;;5069676;28;20205;-86
2022/08/26 12:55:35;;;;;;;2.80;1.50;;;32.30;47.60;;;;;;5075677;28;20206;-85
2022/08/26 12:58:22;;;;;;;2.33;1.55;;;32.40;58.10;;;;;;5054557;28;20604;-87
2022/08/26 13:00:52;;;;;;;4.60;3.00;;;32.10;48.10;;;;;;5059208;28;20635;-86
2022/08/26 13:03:44;;;;;;;2.20;1.55;;;31.90;48.30;;;;;;5073944;28;20186;-86
2022/08/26 13:06:22;;;;;;;8.23;1.70;;;31.70;48.10;;;;;;5055748;28;20171;-85
2022/08/26 13:09:04;;;;;;;1.65;1.13;;;31.60;48.10;;;;;;5074077;28;20240;-87
2022/08/26 13:11:31;;;;;;;1.42;1.27;;;31.50;59.60;;;;;;5056133;28;20167;-84
2022/08/26 13:14:02;;;;;;;1.65;1.20;;;31.60;48.10;;;;;;5055428;28;20224;-85
2022/08/26 13:16:28;;;;;;;8.93;1.67;;;;;;;;;;5068738;28;20637;-86
2022/08/26 13:18:58;;;;;;;5.00;1.60;;;31.80;47.30;;;;;;5074810;28;20217;-85
2022/08/26 13:21:30;;;;;;;1.80;1.45;;;32.00;48.30;;;;;;5067695;28;20176;-86
2022/08/26 13:24:01;;;;;;;4.25;1.40;;;32.10;48.90;;;;;;5067609;28;20254;-85
2022/08/26 13:26:27;;;;;;;1.67;1.50;;;32.20;47.60;;;;;;5061426;28;20164;-84
2022/08/26 13:28:53;;;;;;;1.77;1.52;;;32.20;48.50;;;;;;5046634;28;20217;-84
2022/08/26 13:31:19;;;;;;;2.65;1.45;;;;;;;;;;5070412;28;20187;-85
2022/08/26 13:33:45;;;;;;;1.65;1.50;;;32.20;47.90;;;;;;5064278;28;20210;-84
2022/08/26 13:36:19;;;;;;;2.10;1.60;;;32.20;48.40;;;;;;5039021;28;20190;-83
2022/08/26 13:38:45;;;;;;;2.20;1.77;;;;;;;;;;5065372;28;20172;-83
2022/08/26 13:41:11;;;;;;;1.77;1.42;;;;;;;;;;5056090;28;20194;-85